Kriti Ruby — SVAT5 — position and weather

sailwx.info

Track history (hours):
 
Tides and Currents Weather Stations Pressure Air Temp Water Temp Dewpoint Dewpoint Depression Visibility Wind Speed Wind Dir Waves Ship Positions

Kriti Ruby

Last reported at 2017-Mar-28 22:33 UTC. Time now 2017-Mar-29 05:25 UTC.
Position N 34°40' W 008°09'.

Length 183 m; draft 11.4 m.

Type: Tanker. MMSI: 240941000.

Date/timePositionNaut miles runAvg speedWind from/ knotsBaromVisibWave heightAir tempDewpointWater temp
2017-Mar-28 22:33N 34°40' W 008°09'1312.1
2017-Mar-28 21:27N 34°52' W 008°04'1212.0
2017-Mar-28 20:29N 35°03' W 007°59'1212.1
2017-Mar-28 19:32N 35°14' W 007°55'1312.3
2017-Mar-28 18:30N 35°26' W 007°50'1212.2
2017-Mar-28 17:31N 35°37' W 007°45'1212.0
2017-Mar-28 16:33N 35°49' W 007°41'  
2017-Mar-23 20:09N 34°43' W 023°17'812.5
2017-Mar-23 19:30N 34°42' W 023°27'  
Track history (hours):
 
Tides and Currents Weather Stations Pressure Air Temp Water Temp Dewpoint Dewpoint Depression Visibility Wind Speed Wind Dir Waves Ship Positions

Kriti Ruby

Last reported at 2017-Mar-28 22:33 UTC. Time now 2017-Mar-29 05:25 UTC.
Position N 34°40' W 008°09'.

Length 183 m; draft 11.4 m.

Type: Tanker. MMSI: 240941000.

Date/timePositionNaut miles runAvg speedWind from/ knotsBaromVisibWave heightAir tempDewpointWater temp
2017-Mar-28 22:33N 34°40' W 008°09'1312.1
2017-Mar-28 21:27N 34°52' W 008°04'1212.0
2017-Mar-28 20:29N 35°03' W 007°59'1212.1
2017-Mar-28 19:32N 35°14' W 007°55'1312.3
2017-Mar-28 18:30N 35°26' W 007°50'1212.2
2017-Mar-28 17:31N 35°37' W 007°45'1212.0
2017-Mar-28 16:33N 35°49' W 007°41'  
2017-Mar-23 20:09N 34°43' W 023°17'812.5
2017-Mar-23 19:30N 34°42' W 023°27'  

Dump ship's entire track history